Terminal Aerodrome Forecast
Issued by NWS Boston, MA

Home | Current Version | Previous Version | Text Only | Print | Product List | Glossary On
Versions: 1 2 3 4 5 6 7 8 9 10 11 12 13 14 15 16 17 18 19 20 21 22
000
FTUS41 KBOX 250818 AAA
TAFPVD
TAF AMD
KPVD 250818Z 2508/2606 28005KT P6SM SKC
     FM251100 29004KT P6SM SCT070
     FM251800 25008KT P6SM SCT080
     FM260300 21007KT P6SM BKN060=

USA.gov is the U.S. government's official web portal to all federal, state and local government web resources and services.